sensor_id;sensor_type;location;lat;lon;timestamp;temperature;humidity
8067;DHT22;4076;48.076;9.118;2023-04-12T00:02:03;7.60;99.90
8067;DHT22;4076;48.076;9.118;2023-04-12T00:04:29;7.60;99.90
8067;DHT22;4076;48.076;9.118;2023-04-12T00:06:55;7.60;99.90
8067;DHT22;4076;48.076;9.118;2023-04-12T00:09:20;7.60;99.90
8067;DHT22;4076;48.076;9.118;2023-04-12T00:11:46;7.60;99.90
8067;DHT22;4076;48.076;9.118;2023-04-12T00:14:12;7.50;99.90
8067;DHT22;4076;48.076;9.118;2023-04-12T00:16:37;7.50;99.90
8067;DHT22;4076;48.076;9.118;2023-04-12T00:19:03;7.50;99.90
8067;DHT22;4076;48.076;9.118;2023-04-12T00:21:31;7.60;99.90
8067;DHT22;4076;48.076;9.118;2023-04-12T00:23:56;7.60;99.90
8067;DHT22;4076;48.076;9.118;2023-04-12T00:26:22;7.60;99.90
8067;DHT22;4076;48.076;9.118;2023-04-12T00:28:49;7.60;99.90
8067;DHT22;4076;48.076;9.118;2023-04-12T00:31:15;7.60;99.90
8067;DHT22;4076;48.076;9.118;2023-04-12T00:33:40;7.60;99.90
8067;DHT22;4076;48.076;9.118;2023-04-12T00:36:06;7.60;99.90
8067;DHT22;4076;48.076;9.118;2023-04-12T00:38:32;7.50;99.90
8067;DHT22;4076;48.076;9.118;2023-04-12T00:40:57;7.50;99.90
8067;DHT22;4076;48.076;9.118;2023-04-12T00:43:23;7.50;99.90
8067;DHT22;4076;48.076;9.118;2023-04-12T00:45:53;7.50;99.90
8067;DHT22;4076;48.076;9.118;2023-04-12T00:48:21;7.50;99.90
8067;DHT22;4076;48.076;9.118;2023-04-12T00:50:47;7.60;99.90
8067;DHT22;4076;48.076;9.118;2023-04-12T00:53:13;7.50;99.90
8067;DHT22;4076;48.076;9.118;2023-04-12T00:55:44;7.50;99.90
8067;DHT22;4076;48.076;9.118;2023-04-12T00:58:10;7.50;99.90
8067;DHT22;4076;48.076;9.118;2023-04-12T01:00:35;7.50;99.90
8067;DHT22;4076;48.076;9.118;2023-04-12T01:03:01;7.50;99.90
8067;DHT22;4076;48.076;9.118;2023-04-12T01:05:29;7.50;99.90
8067;DHT22;4076;48.076;9.118;2023-04-12T01:08:08;7.50;99.90
8067;DHT22;4076;48.076;9.118;2023-04-12T01:13:26;7.50;99.90
8067;DHT22;4076;48.076;9.118;2023-04-12T01:15:59;7.50;99.90
8067;DHT22;4076;48.076;9.118;2023-04-12T01:18:29;7.40;99.90
8067;DHT22;4076;48.076;9.118;2023-04-12T01:21:07;7.40;99.90
8067;DHT22;4076;48.076;9.118;2023-04-12T01:29:01;7.30;99.90
8067;DHT22;4076;48.076;9.118;2023-04-12T01:31:28;7.40;99.90
8067;DHT22;4076;48.076;9.118;2023-04-12T01:33:56;7.40;99.90
8067;DHT22;4076;48.076;9.118;2023-04-12T01:36:25;7.40;99.90
8067;DHT22;4076;48.076;9.118;2023-04-12T01:38:53;7.30;99.90
8067;DHT22;4076;48.076;9.118;2023-04-12T01:41:20;7.40;99.90
8067;DHT22;4076;48.076;9.118;2023-04-12T01:43:47;7.40;99.90
8067;DHT22;4076;48.076;9.118;2023-04-12T01:46:15;7.30;99.90
8067;DHT22;4076;48.076;9.118;2023-04-12T01:48:47;7.30;99.90
8067;DHT22;4076;48.076;9.118;2023-04-12T01:53:59;7.30;99.90
8067;DHT22;4076;48.076;9.118;2023-04-12T01:56:30;7.30;99.90
8067;DHT22;4076;48.076;9.118;2023-04-12T01:58:58;7.30;99.90
8067;DHT22;4076;48.076;9.118;2023-04-12T02:01:25;7.30;99.90
8067;DHT22;4076;48.076;9.118;2023-04-12T02:03:53;7.30;99.90
8067;DHT22;4076;48.076;9.118;2023-04-12T02:06:20;7.30;99.90
8067;DHT22;4076;48.076;9.118;2023-04-12T02:08:47;7.30;99.90
8067;DHT22;4076;48.076;9.118;2023-04-12T02:11:13;7.30;99.90
8067;DHT22;4076;48.076;9.118;2023-04-12T02:13:41;7.30;99.90
8067;DHT22;4076;48.076;9.118;2023-04-12T02:16:07;7.30;99.90
8067;DHT22;4076;48.076;9.118;2023-04-12T02:18:35;7.30;99.90
8067;DHT22;4076;48.076;9.118;2023-04-12T02:21:00;7.30;99.90
8067;DHT22;4076;48.076;9.118;2023-04-12T02:23:26;7.30;99.90
8067;DHT22;4076;48.076;9.118;2023-04-12T02:25:51;7.30;99.90
8067;DHT22;4076;48.076;9.118;2023-04-12T02:28:17;7.30;99.90
8067;DHT22;4076;48.076;9.118;2023-04-12T02:30:43;7.30;99.90
8067;DHT22;4076;48.076;9.118;2023-04-12T02:33:09;7.20;99.90
8067;DHT22;4076;48.076;9.118;2023-04-12T02:35:36;7.20;99.90
8067;DHT22;4076;48.076;9.118;2023-04-12T02:38:01;7.20;99.90
8067;DHT22;4076;48.076;9.118;2023-04-12T02:40:33;7.10;99.90
8067;DHT22;4076;48.076;9.118;2023-04-12T02:42:59;7.10;99.90
8067;DHT22;4076;48.076;9.118;2023-04-12T02:45:25;7.10;99.90
8067;DHT22;4076;48.076;9.118;2023-04-12T02:47:51;7.10;99.90
8067;DHT22;4076;48.076;9.118;2023-04-12T02:50:17;7.10;99.90
8067;DHT22;4076;48.076;9.118;2023-04-12T02:52:42;7.10;99.90
8067;DHT22;4076;48.076;9.118;2023-04-12T02:55:08;7.10;99.90
8067;DHT22;4076;48.076;9.118;2023-04-12T02:57:34;7.10;99.90
8067;DHT22;4076;48.076;9.118;2023-04-12T03:00:00;7.10;99.90
8067;DHT22;4076;48.076;9.118;2023-04-12T03:02:26;7.10;99.90
8067;DHT22;4076;48.076;9.118;2023-04-12T03:04:52;7.10;99.90
8067;DHT22;4076;48.076;9.118;2023-04-12T03:07:19;7.10;99.90
8067;DHT22;4076;48.076;9.118;2023-04-12T03:09:46;7.10;99.90
8067;DHT22;4076;48.076;9.118;2023-04-12T03:12:14;7.00;99.90
8067;DHT22;4076;48.076;9.118;2023-04-12T03:14:40;7.00;99.90
8067;DHT22;4076;48.076;9.118;2023-04-12T03:17:06;7.00;99.90
8067;DHT22;4076;48.076;9.118;2023-04-12T03:19:31;7.00;99.90
8067;DHT22;4076;48.076;9.118;2023-04-12T03:21:59;7.00;99.90
8067;DHT22;4076;48.076;9.118;2023-04-12T03:24:26;7.00;99.90
8067;DHT22;4076;48.076;9.118;2023-04-12T03:26:51;7.00;99.90
8067;DHT22;4076;48.076;9.118;2023-04-12T03:29:17;7.00;99.90
8067;DHT22;4076;48.076;9.118;2023-04-12T03:31:43;7.00;99.90
8067;DHT22;4076;48.076;9.118;2023-04-12T03:34:08;7.00;99.90
8067;DHT22;4076;48.076;9.118;2023-04-12T03:36:34;7.00;99.90
8067;DHT22;4076;48.076;9.118;2023-04-12T03:38:59;7.00;99.90
8067;DHT22;4076;48.076;9.118;2023-04-12T03:41:26;7.00;99.90
8067;DHT22;4076;48.076;9.118;2023-04-12T03:43:52;6.90;99.90
8067;DHT22;4076;48.076;9.118;2023-04-12T03:46:18;7.00;99.90
8067;DHT22;4076;48.076;9.118;2023-04-12T03:48:43;7.00;99.90
8067;DHT22;4076;48.076;9.118;2023-04-12T03:51:09;7.00;99.90
8067;DHT22;4076;48.076;9.118;2023-04-12T03:53:37;7.00;99.90
8067;DHT22;4076;48.076;9.118;2023-04-12T03:56:03;7.10;99.90
8067;DHT22;4076;48.076;9.118;2023-04-12T03:58:28;7.10;99.90
8067;DHT22;4076;48.076;9.118;2023-04-12T04:00:54;7.10;99.90
8067;DHT22;4076;48.076;9.118;2023-04-12T04:03:20;7.00;99.90
8067;DHT22;4076;48.076;9.118;2023-04-12T04:05:51;7.00;99.90
8067;DHT22;4076;48.076;9.118;2023-04-12T04:08:17;7.00;99.90
8067;DHT22;4076;48.076;9.118;2023-04-12T04:10:43;7.00;99.90
8067;DHT22;4076;48.076;9.118;2023-04-12T04:13:08;7.00;99.90
8067;DHT22;4076;48.076;9.118;2023-04-12T04:15:34;7.00;99.90
8067;DHT22;4076;48.076;9.118;2023-04-12T04:18:00;6.90;99.90
8067;DHT22;4076;48.076;9.118;2023-04-12T04:20:25;6.90;99.90
8067;DHT22;4076;48.076;9.118;2023-04-12T04:22:51;6.90;99.90
8067;DHT22;4076;48.076;9.118;2023-04-12T04:25:17;6.90;99.90
8067;DHT22;4076;48.076;9.118;2023-04-12T04:27:44;6.90;99.90
8067;DHT22;4076;48.076;9.118;2023-04-12T04:30:11;7.00;99.90
8067;DHT22;4076;48.076;9.118;2023-04-12T04:32:37;7.00;99.90
8067;DHT22;4076;48.076;9.118;2023-04-12T04:35:03;6.90;99.90
8067;DHT22;4076;48.076;9.118;2023-04-12T04:37:30;6.90;99.90
8067;DHT22;4076;48.076;9.118;2023-04-12T04:39:56;6.90;99.90
8067;DHT22;4076;48.076;9.118;2023-04-12T04:42:22;6.80;99.90
8067;DHT22;4076;48.076;9.118;2023-04-12T04:44:48;6.80;99.90
8067;DHT22;4076;48.076;9.118;2023-04-12T04:47:24;6.80;99.90
8067;DHT22;4076;48.076;9.118;2023-04-12T04:49:50;6.80;99.90
8067;DHT22;4076;48.076;9.118;2023-04-12T04:52:15;6.80;99.90
8067;DHT22;4076;48.076;9.118;2023-04-12T04:54:42;6.80;99.90
8067;DHT22;4076;48.076;9.118;2023-04-12T04:57:08;6.80;99.90
8067;DHT22;4076;48.076;9.118;2023-04-12T04:59:36;6.80;99.90
8067;DHT22;4076;48.076;9.118;2023-04-12T05:02:02;6.80;99.90
8067;DHT22;4076;48.076;9.118;2023-04-12T05:04:27;6.80;99.90
8067;DHT22;4076;48.076;9.118;2023-04-12T05:06:53;6.90;99.90
8067;DHT22;4076;48.076;9.118;2023-04-12T05:09:19;6.80;99.90
8067;DHT22;4076;48.076;9.118;2023-04-12T05:11:45;6.80;99.90
8067;DHT22;4076;48.076;9.118;2023-04-12T05:14:11;6.80;99.90
8067;DHT22;4076;48.076;9.118;2023-04-12T05:16:36;6.80;99.90
8067;DHT22;4076;48.076;9.118;2023-04-12T05:19:02;6.80;99.90
8067;DHT22;4076;48.076;9.118;2023-04-12T05:21:28;6.80;99.90
8067;DHT22;4076;48.076;9.118;2023-04-12T05:23:53;6.80;99.90
8067;DHT22;4076;48.076;9.118;2023-04-12T05:26:19;6.80;99.90
8067;DHT22;4076;48.076;9.118;2023-04-12T05:28:45;6.80;99.90
8067;DHT22;4076;48.076;9.118;2023-04-12T05:31:11;6.80;99.90
8067;DHT22;4076;48.076;9.118;2023-04-12T05:33:37;6.90;99.90
8067;DHT22;4076;48.076;9.118;2023-04-12T05:36:03;7.00;99.90
8067;DHT22;4076;48.076;9.118;2023-04-12T05:38:29;7.00;99.90
8067;DHT22;4076;48.076;9.118;2023-04-12T05:40:54;7.00;99.90
8067;DHT22;4076;48.076;9.118;2023-04-12T05:43:20;7.00;99.90
8067;DHT22;4076;48.076;9.118;2023-04-12T05:45:45;7.10;99.90
8067;DHT22;4076;48.076;9.118;2023-04-12T05:48:11;7.10;99.90
8067;DHT22;4076;48.076;9.118;2023-04-12T05:50:37;7.10;99.90
8067;DHT22;4076;48.076;9.118;2023-04-12T05:53:03;7.10;99.90
8067;DHT22;4076;48.076;9.118;2023-04-12T05:55:29;7.10;99.90
8067;DHT22;4076;48.076;9.118;2023-04-12T05:57:55;7.10;99.90
8067;DHT22;4076;48.076;9.118;2023-04-12T06:00:21;7.20;99.90
8067;DHT22;4076;48.076;9.118;2023-04-12T06:02:47;7.20;99.90
8067;DHT22;4076;48.076;9.118;2023-04-12T06:05:14;7.20;99.90
8067;DHT22;4076;48.076;9.118;2023-04-12T06:07:42;7.20;99.90
8067;DHT22;4076;48.076;9.118;2023-04-12T06:10:12;7.20;99.90
8067;DHT22;4076;48.076;9.118;2023-04-12T06:12:38;7.20;99.90
8067;DHT22;4076;48.076;9.118;2023-04-12T06:15:04;7.30;99.90
8067;DHT22;4076;48.076;9.118;2023-04-12T06:17:31;7.30;99.90
8067;DHT22;4076;48.076;9.118;2023-04-12T06:19:57;7.30;99.90
8067;DHT22;4076;48.076;9.118;2023-04-12T06:22:23;7.40;99.90
8067;DHT22;4076;48.076;9.118;2023-04-12T06:24:48;7.40;99.90
8067;DHT22;4076;48.076;9.118;2023-04-12T06:27:15;7.40;99.90
8067;DHT22;4076;48.076;9.118;2023-04-12T06:29:40;7.40;99.90
8067;DHT22;4076;48.076;9.118;2023-04-12T06:32:06;7.50;99.90
8067;DHT22;4076;48.076;9.118;2023-04-12T06:34:31;7.50;99.90
8067;DHT22;4076;48.076;9.118;2023-04-12T06:36:57;7.50;99.90
8067;DHT22;4076;48.076;9.118;2023-04-12T06:39:23;7.60;99.90
8067;DHT22;4076;48.076;9.118;2023-04-12T06:41:48;7.60;99.90
8067;DHT22;4076;48.076;9.118;2023-04-12T06:44:15;7.60;99.90
8067;DHT22;4076;48.076;9.118;2023-04-12T06:46:41;7.70;99.90
8067;DHT22;4076;48.076;9.118;2023-04-12T06:49:07;7.70;99.90
8067;DHT22;4076;48.076;9.118;2023-04-12T06:51:32;7.70;99.90
8067;DHT22;4076;48.076;9.118;2023-04-12T06:54:00;7.70;99.90
8067;DHT22;4076;48.076;9.118;2023-04-12T06:56:25;7.70;99.90
8067;DHT22;4076;48.076;9.118;2023-04-12T06:58:51;7.80;99.90
8067;DHT22;4076;48.076;9.118;2023-04-12T07:01:17;7.90;99.90
8067;DHT22;4076;48.076;9.118;2023-04-12T07:03:42;7.90;99.90
8067;DHT22;4076;48.076;9.118;2023-04-12T07:06:08;8.00;99.90
8067;DHT22;4076;48.076;9.118;2023-04-12T07:08:34;8.00;99.90
8067;DHT22;4076;48.076;9.118;2023-04-12T07:11:01;8.20;99.90
8067;DHT22;4076;48.076;9.118;2023-04-12T07:13:27;8.30;99.90
8067;DHT22;4076;48.076;9.118;2023-04-12T07:15:52;8.40;99.90
8067;DHT22;4076;48.076;9.118;2023-04-12T07:18:19;8.40;99.90
8067;DHT22;4076;48.076;9.118;2023-04-12T07:20:49;8.50;99.90
8067;DHT22;4076;48.076;9.118;2023-04-12T07:23:15;8.60;99.90
8067;DHT22;4076;48.076;9.118;2023-04-12T07:25:41;8.60;99.90
8067;DHT22;4076;48.076;9.118;2023-04-12T07:28:06;8.60;99.90
8067;DHT22;4076;48.076;9.118;2023-04-12T07:30:32;8.60;99.90
8067;DHT22;4076;48.076;9.118;2023-04-12T07:32:58;8.60;99.90
8067;DHT22;4076;48.076;9.118;2023-04-12T07:35:25;8.70;99.90
8067;DHT22;4076;48.076;9.118;2023-04-12T07:37:52;8.60;99.90
8067;DHT22;4076;48.076;9.118;2023-04-12T07:40:18;8.50;99.90
8067;DHT22;4076;48.076;9.118;2023-04-12T07:42:43;8.60;99.90
8067;DHT22;4076;48.076;9.118;2023-04-12T07:45:09;8.70;99.90
8067;DHT22;4076;48.076;9.118;2023-04-12T07:47:35;8.80;99.90
8067;DHT22;4076;48.076;9.118;2023-04-12T07:50:01;9.00;99.90
8067;DHT22;4076;48.076;9.118;2023-04-12T07:52:28;9.20;99.90
8067;DHT22;4076;48.076;9.118;2023-04-12T07:54:54;9.30;99.90
8067;DHT22;4076;48.076;9.118;2023-04-12T07:57:19;9.30;99.90
8067;DHT22;4076;48.076;9.118;2023-04-12T07:59:46;9.20;99.90
8067;DHT22;4076;48.076;9.118;2023-04-12T08:02:11;9.10;99.90
8067;DHT22;4076;48.076;9.118;2023-04-12T08:04:37;9.00;99.90
8067;DHT22;4076;48.076;9.118;2023-04-12T08:07:03;8.90;99.90
8067;DHT22;4076;48.076;9.118;2023-04-12T08:09:28;9.00;99.90
8067;DHT22;4076;48.076;9.118;2023-04-12T08:11:54;9.20;99.90
8067;DHT22;4076;48.076;9.118;2023-04-12T08:14:21;9.40;99.90
8067;DHT22;4076;48.076;9.118;2023-04-12T08:16:47;9.70;99.90
8067;DHT22;4076;48.076;9.118;2023-04-12T08:19:13;9.80;99.90
8067;DHT22;4076;48.076;9.118;2023-04-12T08:21:38;9.90;99.90
8067;DHT22;4076;48.076;9.118;2023-04-12T08:24:04;9.80;99.90
8067;DHT22;4076;48.076;9.118;2023-04-12T08:26:30;9.80;99.90
8067;DHT22;4076;48.076;9.118;2023-04-12T08:28:56;9.90;99.90
8067;DHT22;4076;48.076;9.118;2023-04-12T08:31:22;10.20;99.90
8067;DHT22;4076;48.076;9.118;2023-04-12T08:33:48;10.50;99.90
8067;DHT22;4076;48.076;9.118;2023-04-12T08:36:14;10.70;99.90
8067;DHT22;4076;48.076;9.118;2023-04-12T08:38:40;10.80;99.90
8067;DHT22;4076;48.076;9.118;2023-04-12T08:41:06;10.90;99.90
8067;DHT22;4076;48.076;9.118;2023-04-12T08:43:33;11.00;99.90
8067;DHT22;4076;48.076;9.118;2023-04-12T08:45:59;11.30;99.90
8067;DHT22;4076;48.076;9.118;2023-04-12T08:48:26;11.70;99.90
8067;DHT22;4076;48.076;9.118;2023-04-12T08:50:55;12.20;99.90
8067;DHT22;4076;48.076;9.118;2023-04-12T08:53:22;12.60;99.90
8067;DHT22;4076;48.076;9.118;2023-04-12T08:55:47;13.20;99.90
8067;DHT22;4076;48.076;9.118;2023-04-12T08:58:14;13.90;99.90
8067;DHT22;4076;48.076;9.118;2023-04-12T09:00:40;14.10;99.90
8067;DHT22;4076;48.076;9.118;2023-04-12T09:03:06;13.90;99.90
8067;DHT22;4076;48.076;9.118;2023-04-12T09:05:32;13.80;99.90
8067;DHT22;4076;48.076;9.118;2023-04-12T09:07:58;14.10;99.90
8067;DHT22;4076;48.076;9.118;2023-04-12T09:10:35;14.50;99.90
8067;DHT22;4076;48.076;9.118;2023-04-12T09:13:02;15.10;99.90
8067;DHT22;4076;48.076;9.118;2023-04-12T09:15:29;15.90;99.90
8067;DHT22;4076;48.076;9.118;2023-04-12T09:18:09;16.90;99.90
8067;DHT22;4076;48.076;9.118;2023-04-12T09:20:36;17.70;97.10
8067;DHT22;4076;48.076;9.118;2023-04-12T09:23:21;17.70;93.00
8067;DHT22;4076;48.076;9.118;2023-04-12T09:25:48;17.00;81.20
8067;DHT22;4076;48.076;9.118;2023-04-12T09:28:27;16.30;81.20
8067;DHT22;4076;48.076;9.118;2023-04-12T09:30:53;15.80;84.60
8067;DHT22;4076;48.076;9.118;2023-04-12T09:33:21;15.30;83.60
8067;DHT22;4076;48.076;9.118;2023-04-12T09:35:48;14.80;85.50
8067;DHT22;4076;48.076;9.118;2023-04-12T09:38:14;14.30;87.60
8067;DHT22;4076;48.076;9.118;2023-04-12T09:40:40;14.30;90.60
8067;DHT22;4076;48.076;9.118;2023-04-12T09:43:06;14.00;92.50
8067;DHT22;4076;48.076;9.118;2023-04-12T09:45:34;13.80;93.30
8067;DHT22;4076;48.076;9.118;2023-04-12T09:48:00;13.70;95.10
8067;DHT22;4076;48.076;9.118;2023-04-12T09:50:27;13.70;95.60
8067;DHT22;4076;48.076;9.118;2023-04-12T09:52:54;13.40;96.60
8067;DHT22;4076;48.076;9.118;2023-04-12T09:55:21;13.30;97.90
8067;DHT22;4076;48.076;9.118;2023-04-12T09:57:49;13.40;99.90
8067;DHT22;4076;48.076;9.118;2023-04-12T10:00:16;13.50;99.90
8067;DHT22;4076;48.076;9.118;2023-04-12T10:02:45;13.60;99.90
8067;DHT22;4076;48.076;9.118;2023-04-12T10:05:13;13.70;98.80
8067;DHT22;4076;48.076;9.118;2023-04-12T10:07:39;13.50;99.60
8067;DHT22;4076;48.076;9.118;2023-04-12T10:10:07;13.60;99.90
8067;DHT22;4076;48.076;9.118;2023-04-12T10:12:35;13.90;99.90
8067;DHT22;4076;48.076;9.118;2023-04-12T10:15:03;14.20;99.90
8067;DHT22;4076;48.076;9.118;2023-04-12T10:17:33;14.40;99.90
8067;DHT22;4076;48.076;9.118;2023-04-12T10:20:00;14.30;99.90
8067;DHT22;4076;48.076;9.118;2023-04-12T10:22:25;14.20;99.90
8067;DHT22;4076;48.076;9.118;2023-04-12T10:24:51;14.20;99.90
8067;DHT22;4076;48.076;9.118;2023-04-12T10:27:24;14.20;99.90
8067;DHT22;4076;48.076;9.118;2023-04-12T10:29:51;14.20;99.90
8067;DHT22;4076;48.076;9.118;2023-04-12T10:32:23;14.20;99.90
8067;DHT22;4076;48.076;9.118;2023-04-12T10:34:53;14.20;99.90
8067;DHT22;4076;48.076;9.118;2023-04-12T10:37:21;14.10;99.90
8067;DHT22;4076;48.076;9.118;2023-04-12T10:39:53;13.90;99.90
8067;DHT22;4076;48.076;9.118;2023-04-12T10:42:21;13.80;99.90
8067;DHT22;4076;48.076;9.118;2023-04-12T10:44:52;13.80;99.90
8067;DHT22;4076;48.076;9.118;2023-04-12T10:50:28;13.80;99.90
8067;DHT22;4076;48.076;9.118;2023-04-12T10:55:40;13.80;99.90
8067;DHT22;4076;48.076;9.118;2023-04-12T10:58:07;13.80;99.90
8067;DHT22;4076;48.076;9.118;2023-04-12T11:03:24;13.90;99.90
8067;DHT22;4076;48.076;9.118;2023-04-12T11:06:00;14.00;99.90
8067;DHT22;4076;48.076;9.118;2023-04-12T11:08:35;14.00;99.90
8067;DHT22;4076;48.076;9.118;2023-04-12T11:11:16;14.10;99.90
8067;DHT22;4076;48.076;9.118;2023-04-12T11:13:42;14.40;99.90
8067;DHT22;4076;48.076;9.118;2023-04-12T11:16:09;14.90;99.90
8067;DHT22;4076;48.076;9.118;2023-04-12T11:18:38;15.50;99.90
8067;DHT22;4076;48.076;9.118;2023-04-12T11:21:04;16.00;94.40
8067;DHT22;4076;48.076;9.118;2023-04-12T11:23:31;16.40;90.00
8067;DHT22;4076;48.076;9.118;2023-04-12T11:25:58;16.50;90.40
8067;DHT22;4076;48.076;9.118;2023-04-12T11:28:24;16.50;89.10
8067;DHT22;4076;48.076;9.118;2023-04-12T11:30:57;16.40;82.50
8067;DHT22;4076;48.076;9.118;2023-04-12T11:33:36;16.30;83.30
8067;DHT22;4076;48.076;9.118;2023-04-12T11:36:07;16.30;81.70
8067;DHT22;4076;48.076;9.118;2023-04-12T11:38:34;16.40;82.40
8067;DHT22;4076;48.076;9.118;2023-04-12T11:41:01;16.40;76.00
8067;DHT22;4076;48.076;9.118;2023-04-12T11:43:32;16.10;77.80
8067;DHT22;4076;48.076;9.118;2023-04-12T11:46:05;15.90;79.00
8067;DHT22;4076;48.076;9.118;2023-04-12T11:48:31;15.70;83.50
8067;DHT22;4076;48.076;9.118;2023-04-12T11:53:55;15.10;83.40
8067;DHT22;4076;48.076;9.118;2023-04-12T11:56:22;15.00;84.30
8067;DHT22;4076;48.076;9.118;2023-04-12T11:58:56;15.20;85.30
8067;DHT22;4076;48.076;9.118;2023-04-12T12:01:35;15.30;83.30
8067;DHT22;4076;48.076;9.118;2023-04-12T12:04:09;15.60;80.80
8067;DHT22;4076;48.076;9.118;2023-04-12T12:06:39;16.00;86.70
8067;DHT22;4076;48.076;9.118;2023-04-12T12:09:11;16.30;82.40
8067;DHT22;4076;48.076;9.118;2023-04-12T12:11:47;16.60;80.40
8067;DHT22;4076;48.076;9.118;2023-04-12T12:14:28;16.90;80.20
8067;DHT22;4076;48.076;9.118;2023-04-12T12:17:12;16.90;75.50
8067;DHT22;4076;48.076;9.118;2023-04-12T12:19:46;17.00;72.30
8067;DHT22;4076;48.076;9.118;2023-04-12T12:22:25;16.80;73.80
8067;DHT22;4076;48.076;9.118;2023-04-12T12:25:07;16.70;73.00
8067;DHT22;4076;48.076;9.118;2023-04-12T12:27:48;16.90;75.30
8067;DHT22;4076;48.076;9.118;2023-04-12T12:30:31;17.10;71.90
8067;DHT22;4076;48.076;9.118;2023-04-12T12:33:08;16.90;72.00
8067;DHT22;4076;48.076;9.118;2023-04-12T12:35:41;16.70;72.60
8067;DHT22;4076;48.076;9.118;2023-04-12T12:38:09;16.80;73.00
8067;DHT22;4076;48.076;9.118;2023-04-12T12:40:37;16.70;71.40
8067;DHT22;4076;48.076;9.118;2023-04-12T12:43:18;16.60;72.30
8067;DHT22;4076;48.076;9.118;2023-04-12T12:45:54;16.70;72.90
8067;DHT22;4076;48.076;9.118;2023-04-12T12:48:39;16.70;70.00
8067;DHT22;4076;48.076;9.118;2023-04-12T12:51:10;16.70;71.60
8067;DHT22;4076;48.076;9.118;2023-04-12T12:53:39;16.80;72.20
8067;DHT22;4076;48.076;9.118;2023-04-12T12:56:18;16.80;69.80
8067;DHT22;4076;48.076;9.118;2023-04-12T12:58:54;16.70;70.50
8067;DHT22;4076;48.076;9.118;2023-04-12T13:01:43;16.90;71.80
8067;DHT22;4076;48.076;9.118;2023-04-12T13:04:24;17.10;73.20
8067;DHT22;4076;48.076;9.118;2023-04-12T13:07:13;17.30;69.70
8067;DHT22;4076;48.076;9.118;2023-04-12T13:09:47;17.50;69.30
8067;DHT22;4076;48.076;9.118;2023-04-12T13:12:18;17.50;66.20
8067;DHT22;4076;48.076;9.118;2023-04-12T13:14:49;17.50;65.40
8067;DHT22;4076;48.076;9.118;2023-04-12T13:17:25;17.30;65.20
8067;DHT22;4076;48.076;9.118;2023-04-12T13:20:06;17.20;65.60
8067;DHT22;4076;48.076;9.118;2023-04-12T13:22:38;17.00;63.80
8067;DHT22;4076;48.076;9.118;2023-04-12T13:25:05;16.90;63.50
8067;DHT22;4076;48.076;9.118;2023-04-12T13:27:31;16.70;62.50
8067;DHT22;4076;48.076;9.118;2023-04-12T13:29:56;16.50;62.40
8067;DHT22;4076;48.076;9.118;2023-04-12T13:32:33;16.10;62.30
8067;DHT22;4076;48.076;9.118;2023-04-12T13:35:09;15.90;64.70
8067;DHT22;4076;48.076;9.118;2023-04-12T13:37:48;16.00;66.60
8067;DHT22;4076;48.076;9.118;2023-04-12T13:40:14;16.20;66.50
8067;DHT22;4076;48.076;9.118;2023-04-12T13:42:40;16.30;66.30
8067;DHT22;4076;48.076;9.118;2023-04-12T13:45:06;16.20;64.90
8067;DHT22;4076;48.076;9.118;2023-04-12T13:47:32;16.10;65.30
8067;DHT22;4076;48.076;9.118;2023-04-12T13:50:01;16.10;65.90
8067;DHT22;4076;48.076;9.118;2023-04-12T13:52:26;16.10;64.60
8067;DHT22;4076;48.076;9.118;2023-04-12T13:54:52;16.00;66.50
8067;DHT22;4076;48.076;9.118;2023-04-12T13:57:29;16.00;65.30
8067;DHT22;4076;48.076;9.118;2023-04-12T14:00:22;16.00;65.40
8067;DHT22;4076;48.076;9.118;2023-04-12T14:03:11;16.00;66.20
8067;DHT22;4076;48.076;9.118;2023-04-12T14:05:41;16.10;66.20
8067;DHT22;4076;48.076;9.118;2023-04-12T14:08:15;16.10;65.50
8067;DHT22;4076;48.076;9.118;2023-04-12T14:10:48;16.10;65.00
8067;DHT22;4076;48.076;9.118;2023-04-12T14:13:14;15.90;65.50
8067;DHT22;4076;48.076;9.118;2023-04-12T14:15:40;15.80;66.20
8067;DHT22;4076;48.076;9.118;2023-04-12T14:18:05;15.60;66.60
8067;DHT22;4076;48.076;9.118;2023-04-12T14:20:31;15.50;66.30
8067;DHT22;4076;48.076;9.118;2023-04-12T14:22:57;15.50;66.40
8067;DHT22;4076;48.076;9.118;2023-04-12T14:25:22;15.50;67.20
8067;DHT22;4076;48.076;9.118;2023-04-12T14:27:48;15.60;67.40
8067;DHT22;4076;48.076;9.118;2023-04-12T14:30:13;15.70;67.50
8067;DHT22;4076;48.076;9.118;2023-04-12T14:32:39;15.90;67.10
8067;DHT22;4076;48.076;9.118;2023-04-12T14:35:05;15.90;65.90
8067;DHT22;4076;48.076;9.118;2023-04-12T14:37:32;15.90;67.30
8067;DHT22;4076;48.076;9.118;2023-04-12T14:39:57;15.90;66.10
8067;DHT22;4076;48.076;9.118;2023-04-12T14:42:23;15.70;65.00
8067;DHT22;4076;48.076;9.118;2023-04-12T14:44:49;15.50;66.60
8067;DHT22;4076;48.076;9.118;2023-04-12T14:47:14;15.40;67.00
8067;DHT22;4076;48.076;9.118;2023-04-12T14:49:40;15.40;67.40
8067;DHT22;4076;48.076;9.118;2023-04-12T14:52:06;15.30;67.00
8067;DHT22;4076;48.076;9.118;2023-04-12T14:54:32;15.10;66.10
8067;DHT22;4076;48.076;9.118;2023-04-12T14:56:58;15.00;69.80
8067;DHT22;4076;48.076;9.118;2023-04-12T14:59:24;14.90;69.00
8067;DHT22;4076;48.076;9.118;2023-04-12T15:01:51;15.00;69.60
8067;DHT22;4076;48.076;9.118;2023-04-12T15:04:17;15.20;70.30
8067;DHT22;4076;48.076;9.118;2023-04-12T15:06:43;15.30;69.00
8067;DHT22;4076;48.076;9.118;2023-04-12T15:09:09;15.30;68.30
8067;DHT22;4076;48.076;9.118;2023-04-12T15:11:35;15.30;68.90
8067;DHT22;4076;48.076;9.118;2023-04-12T15:14:02;15.30;68.10
8067;DHT22;4076;48.076;9.118;2023-04-12T15:16:29;15.30;67.90
8067;DHT22;4076;48.076;9.118;2023-04-12T15:18:55;15.30;67.80
8067;DHT22;4076;48.076;9.118;2023-04-12T15:21:20;15.30;67.50
8067;DHT22;4076;48.076;9.118;2023-04-12T15:23:47;15.20;67.30
8067;DHT22;4076;48.076;9.118;2023-04-12T15:26:13;15.10;66.60
8067;DHT22;4076;48.076;9.118;2023-04-12T15:28:39;15.00;66.90
8067;DHT22;4076;48.076;9.118;2023-04-12T15:31:05;14.90;67.40
8067;DHT22;4076;48.076;9.118;2023-04-12T15:33:32;14.90;65.90
8067;DHT22;4076;48.076;9.118;2023-04-12T15:36:02;15.00;64.50
8067;DHT22;4076;48.076;9.118;2023-04-12T15:38:28;14.80;63.10
8067;DHT22;4076;48.076;9.118;2023-04-12T15:40:56;14.70;63.90
8067;DHT22;4076;48.076;9.118;2023-04-12T15:43:22;14.70;62.70
8067;DHT22;4076;48.076;9.118;2023-04-12T15:45:48;14.60;63.60
8067;DHT22;4076;48.076;9.118;2023-04-12T15:48:18;14.60;63.80
8067;DHT22;4076;48.076;9.118;2023-04-12T15:50:44;14.60;63.30
8067;DHT22;4076;48.076;9.118;2023-04-12T15:53:10;14.50;63.40
8067;DHT22;4076;48.076;9.118;2023-04-12T15:55:36;14.50;62.90
8067;DHT22;4076;48.076;9.118;2023-04-12T15:58:01;14.40;62.60
8067;DHT22;4076;48.076;9.118;2023-04-12T16:00:27;14.40;62.70
8067;DHT22;4076;48.076;9.118;2023-04-12T16:02:54;14.30;62.50
8067;DHT22;4076;48.076;9.118;2023-04-12T16:05:22;14.20;62.40
8067;DHT22;4076;48.076;9.118;2023-04-12T16:07:52;14.10;61.70
8067;DHT22;4076;48.076;9.118;2023-04-12T16:10:19;13.90;62.30
8067;DHT22;4076;48.076;9.118;2023-04-12T16:12:54;13.90;62.50
8067;DHT22;4076;48.076;9.118;2023-04-12T16:15:20;13.80;62.40
8067;DHT22;4076;48.076;9.118;2023-04-12T16:17:47;13.80;62.90
8067;DHT22;4076;48.076;9.118;2023-04-12T16:20:14;13.70;62.60
8067;DHT22;4076;48.076;9.118;2023-04-12T16:22:46;13.70;62.40
8067;DHT22;4076;48.076;9.118;2023-04-12T16:25:13;13.50;62.60
8067;DHT22;4076;48.076;9.118;2023-04-12T16:27:39;13.40;64.10
8067;DHT22;4076;48.076;9.118;2023-04-12T16:30:05;13.40;65.40
8067;DHT22;4076;48.076;9.118;2023-04-12T16:32:33;13.30;66.30
8067;DHT22;4076;48.076;9.118;2023-04-12T16:35:00;13.20;66.50
8067;DHT22;4076;48.076;9.118;2023-04-12T16:37:27;13.00;67.20